La Junta, New Mexico
Current Conditions -  °F | °C
As of 1:15 AM on Friday 24 Oct 2014 (Local Time) from KLAM Reporting Station
Clear Clear  
Wind Chill: 56°   Ceiling: Unl
Heat Index: 56°   Visibility: 10mi
Dew Point: 28°   Wind: 0mph
Humidity: 35%   Direction: NA
Pressure: 30.38"   Gusts: NA
Location:  36.1441°N, 105.996°W
Report Text: KLAM 240715Z AUTO 00000KT 10SM CLR 13/M02 A3038 RMK AO2 T01311021
Loading
Personal Weather Stations






























Interactive Weather Map
Tropical Storm Tracking
New forecast layout! Learn more

10-Day Weather Forecast

Advertisements
Track Severe Weather on mobile